createdAt,value
2022-11-22T00:00:01.802Z,20.15
2022-11-22T00:01:11.406Z,20.15
2022-11-22T00:02:19.031Z,20.15
2022-11-22T00:03:28.555Z,20.15
2022-11-22T00:04:37.176Z,20.15
2022-11-22T00:05:45.742Z,20.139999
2022-11-22T00:06:55.327Z,20.139999
2022-11-22T00:08:02.881Z,20.139999
2022-11-22T00:09:12.440Z,20.139999
2022-11-22T00:10:22.010Z,20.139999
2022-11-22T00:11:30.631Z,20.139999
2022-11-22T00:12:40.192Z,20.139999
2022-11-22T00:13:48.733Z,20.139999
2022-11-22T00:14:57.057Z,20.139999
2022-11-22T00:16:05.875Z,20.129999
2022-11-22T00:17:13.473Z,20.129999
2022-11-22T00:18:23.044Z,20.129999
2022-11-22T00:19:32.610Z,20.129999
2022-11-22T00:20:41.183Z,20.129999
2022-11-22T00:21:50.776Z,20.129999
2022-11-22T00:23:00.324Z,20.129999
2022-11-22T00:24:07.881Z,20.129999
2022-11-22T00:25:17.440Z,20.120001
2022-11-22T00:26:25.036Z,20.120001
2022-11-22T00:27:33.613Z,20.120001
2022-11-22T00:28:43.178Z,20.120001
2022-11-22T00:29:52.745Z,20.120001
2022-11-22T00:31:01.325Z,20.120001
2022-11-22T00:32:10.923Z,20.120001
2022-11-22T00:33:19.500Z,20.120001
2022-11-22T00:34:29.055Z,20.120001
2022-11-22T00:35:37.592Z,20.120001
2022-11-22T00:36:47.181Z,20.110001
2022-11-22T00:37:56.782Z,20.110001
2022-11-22T00:39:04.345Z,20.110001
2022-11-22T00:40:13.916Z,20.110001
2022-11-22T00:41:22.487Z,20.110001
2022-11-22T00:42:30.048Z,20.110001
2022-11-22T00:43:39.631Z,20.110001
2022-11-22T00:44:47.168Z,20.1
2022-11-22T00:45:56.734Z,20.1
2022-11-22T00:47:06.344Z,20.1
2022-11-22T00:48:13.864Z,20.1
2022-11-22T00:49:23.427Z,20.1
2022-11-22T00:50:31.976Z,20.1
2022-11-22T00:51:39.548Z,20.1
2022-11-22T00:52:49.128Z,20.1
2022-11-22T00:53:56.669Z,20.1
2022-11-22T00:55:05.226Z,20.09
2022-11-22T00:56:14.771Z,20.09
2022-11-22T00:57:23.355Z,20.09
2022-11-22T00:58:32.914Z,20.09
2022-11-22T00:59:41.483Z,20.09
2022-11-22T01:00:52.131Z,20.09
2022-11-22T01:01:58.596Z,20.09
2022-11-22T01:03:06.168Z,20.09
2022-11-22T01:04:15.715Z,20.08
2022-11-22T01:05:25.269Z,20.08
2022-11-22T01:06:33.847Z,20.08
2022-11-22T01:07:43.507Z,20.08
2022-11-22T01:08:51.971Z,20.08
2022-11-22T01:09:59.530Z,20.08
2022-11-22T01:11:09.080Z,20.08
2022-11-22T01:12:18.668Z,20.08
2022-11-22T01:13:27.231Z,20.08
2022-11-22T01:14:36.804Z,20.08
2022-11-22T01:15:45.368Z,20.07
2022-11-22T01:16:52.942Z,20.07
2022-11-22T01:18:02.500Z,20.07
2022-11-22T01:19:10.084Z,20.07
2022-11-22T01:20:18.746Z,20.07
2022-11-22T01:21:28.309Z,20.059999
2022-11-22T01:22:37.871Z,20.059999
2022-11-22T01:23:47.450Z,20.059999
2022-11-22T01:24:57.005Z,20.059999
2022-11-22T01:26:04.548Z,20.059999
2022-11-22T01:27:14.152Z,20.059999
2022-11-22T01:28:21.756Z,20.059999
2022-11-22T01:29:30.574Z,20.059999
2022-11-22T01:30:39.853Z,20.059999
2022-11-22T01:31:47.413Z,20.049999
2022-11-22T01:32:56.964Z,20.049999
2022-11-22T01:34:05.518Z,20.049999
2022-11-22T01:35:13.103Z,20.049999
2022-11-22T01:36:22.632Z,20.049999
2022-11-22T01:37:30.201Z,20.040001
2022-11-22T01:38:38.749Z,20.040001
2022-11-22T01:39:48.310Z,20.040001
2022-11-22T01:40:55.850Z,20.040001
2022-11-22T01:42:05.422Z,20.040001
2022-11-22T01:43:13.983Z,20.040001
2022-11-22T01:44:21.540Z,20.040001
2022-11-22T01:45:31.099Z,20.040001
2022-11-22T01:46:38.665Z,20.040001
2022-11-22T01:47:46.219Z,20.040001
2022-11-22T01:48:55.822Z,20.030001
2022-11-22T01:50:05.385Z,20.030001
2022-11-22T01:51:14.985Z,20.030001
2022-11-22T01:52:24.531Z,20.030001
2022-11-22T01:53:32.090Z,20.030001
2022-11-22T01:54:41.669Z,20.030001
2022-11-22T01:55:49.211Z,20.030001
2022-11-22T01:56:57.776Z,20.030001
2022-11-22T01:58:07.351Z,20.030001
2022-11-22T01:59:14.904Z,20.02
2022-11-22T02:00:24.491Z,20.02
2022-11-22T02:01:33.129Z,20.02
2022-11-22T02:02:40.630Z,20.02
2022-11-22T02:03:50.190Z,20.02
2022-11-22T02:04:57.748Z,20.02
2022-11-22T02:06:07.334Z,20.02
2022-11-22T02:07:16.932Z,20.02
2022-11-22T02:08:24.467Z,20.01
2022-11-22T02:09:34.057Z,20.01
2022-11-22T02:10:42.639Z,20.01
2022-11-22T02:11:50.186Z,20.01
2022-11-22T02:12:59.781Z,20.01
2022-11-22T02:14:07.327Z,20.01
2022-11-22T02:15:15.885Z,20.01
2022-11-22T02:16:25.575Z,20.01
2022-11-22T02:17:33.164Z,20.01
2022-11-22T02:18:42.743Z,20.01
2022-11-22T02:19:51.268Z,20.01
2022-11-22T02:20:58.818Z,20.01
2022-11-22T02:22:08.397Z,20.01
2022-11-22T02:23:15.990Z,20
2022-11-22T02:24:25.581Z,20
2022-11-22T02:25:35.152Z,20
2022-11-22T02:26:42.715Z,20
2022-11-22T02:27:52.306Z,20
2022-11-22T02:29:00.839Z,20
2022-11-22T02:30:08.387Z,20
2022-11-22T02:31:17.954Z,20
2022-11-22T02:32:25.558Z,19.99
2022-11-22T02:33:34.107Z,19.99
2022-11-22T02:34:43.672Z,19.99
2022-11-22T02:35:53.243Z,19.99
2022-11-22T02:37:02.826Z,19.99
2022-11-22T02:38:11.391Z,19.99
2022-11-22T02:39:19.986Z,19.99
2022-11-22T02:40:29.533Z,19.99
2022-11-22T02:41:37.081Z,19.99
2022-11-22T02:42:45.660Z,19.98
2022-11-22T02:43:55.232Z,19.98
2022-11-22T02:45:02.801Z,19.98
2022-11-22T02:46:12.410Z,19.98
2022-11-22T02:47:22.003Z,19.98
2022-11-22T02:48:30.568Z,19.98
2022-11-22T02:49:40.169Z,19.98
2022-11-22T02:50:48.720Z,19.98
2022-11-22T02:51:57.288Z,19.98
2022-11-22T02:53:06.860Z,19.969999
2022-11-22T02:54:15.458Z,19.969999
2022-11-22T02:55:23.059Z,19.969999
2022-11-22T02:56:32.624Z,19.969999
2022-11-22T02:57:40.214Z,19.969999
2022-11-22T02:58:49.801Z,19.969999
2022-11-22T02:59:58.376Z,19.969999
2022-11-22T03:01:06.029Z,19.969999
2022-11-22T03:02:15.569Z,19.969999
2022-11-22T03:03:24.155Z,19.969999
2022-11-22T03:04:33.754Z,19.959999
2022-11-22T03:05:41.321Z,19.959999
2022-11-22T03:06:48.933Z,19.959999
2022-11-22T03:07:58.532Z,19.959999
2022-11-22T03:09:06.113Z,19.959999
2022-11-22T03:10:15.699Z,19.959999
2022-11-22T03:11:24.299Z,19.959999
2022-11-22T03:12:31.908Z,19.959999
2022-11-22T03:13:41.499Z,19.959999
2022-11-22T03:14:49.064Z,19.959999
2022-11-22T03:15:57.657Z,19.950001
2022-11-22T03:17:07.282Z,19.950001
2022-11-22T03:18:14.856Z,19.950001
2022-11-22T03:19:24.448Z,19.950001
2022-11-22T03:20:33.143Z,19.950001
2022-11-22T03:21:40.708Z,19.950001
2022-11-22T03:22:50.272Z,19.950001
2022-11-22T03:23:57.850Z,19.950001
2022-11-22T03:25:06.440Z,19.950001
2022-11-22T03:26:16.021Z,19.950001
2022-11-22T03:27:24.635Z,19.940001
2022-11-22T03:28:34.176Z,19.940001
2022-11-22T03:29:42.785Z,19.940001
2022-11-22T03:30:51.392Z,19.940001
2022-11-22T03:32:00.988Z,19.940001
2022-11-22T03:33:08.563Z,19.940001
2022-11-22T03:34:18.124Z,19.940001
2022-11-22T03:35:27.759Z,19.940001
2022-11-22T03:36:36.385Z,19.940001
2022-11-22T03:37:45.972Z,19.940001
2022-11-22T03:38:54.552Z,19.940001
2022-11-22T03:40:02.123Z,19.940001
2022-11-22T03:41:11.706Z,19.93
2022-11-22T03:42:22.027Z,19.93
2022-11-22T03:43:27.868Z,19.93
2022-11-22T03:44:37.393Z,19.93
2022-11-22T03:45:45.967Z,19.93
2022-11-22T03:46:53.563Z,19.93
2022-11-22T03:48:03.160Z,19.93
2022-11-22T03:49:10.714Z,19.93
2022-11-22T03:50:19.262Z,19.93
2022-11-22T03:51:28.826Z,19.93
2022-11-22T03:52:37.419Z,19.93
2022-11-22T03:53:45.976Z,19.92
2022-11-22T03:54:54.554Z,19.92
2022-11-22T03:56:03.119Z,19.92
2022-11-22T03:57:12.723Z,19.92
2022-11-22T03:58:21.293Z,19.92
2022-11-22T03:59:31.016Z,19.92
2022-11-22T04:00:40.404Z,19.92
2022-11-22T04:01:47.971Z,19.92
2022-11-22T04:02:57.532Z,19.92
2022-11-22T04:04:06.078Z,19.92
2022-11-22T04:05:13.650Z,19.92
2022-11-22T04:06:23.215Z,19.92
2022-11-22T04:07:30.837Z,19.91
2022-11-22T04:08:39.364Z,19.91
2022-11-22T04:09:48.912Z,19.91
2022-11-22T04:10:56.490Z,19.91
2022-11-22T04:12:06.103Z,19.91
2022-11-22T04:13:14.673Z,19.91
2022-11-22T04:14:24.230Z,19.91
2022-11-22T04:15:33.831Z,19.91
2022-11-22T04:16:42.371Z,19.91
2022-11-22T04:17:50.967Z,19.9
2022-11-22T04:19:00.560Z,19.9
2022-11-22T04:20:08.317Z,19.9
2022-11-22T04:21:17.902Z,19.9
2022-11-22T04:22:26.490Z,19.9
2022-11-22T04:23:35.130Z,19.9
2022-11-22T04:24:44.675Z,19.889999
2022-11-22T04:25:52.266Z,19.889999
2022-11-22T04:27:00.961Z,19.889999
2022-11-22T04:28:10.529Z,19.889999
2022-11-22T04:29:19.090Z,19.889999
2022-11-22T04:30:28.692Z,19.889999
2022-11-22T04:31:37.305Z,19.889999
2022-11-22T04:32:45.874Z,19.889999
2022-11-22T04:33:55.539Z,19.879999
2022-11-22T04:35:03.103Z,19.879999
2022-11-22T04:36:13.502Z,19.879999
2022-11-22T04:37:22.381Z,19.879999
2022-11-22T04:38:32.011Z,19.879999
2022-11-22T04:39:41.616Z,19.879999
2022-11-22T04:40:51.184Z,19.879999
2022-11-22T04:41:58.787Z,19.870001
2022-11-22T04:43:08.380Z,19.870001
2022-11-22T04:44:17.952Z,19.870001
2022-11-22T04:45:26.509Z,19.870001
2022-11-22T04:46:37.053Z,19.870001
2022-11-22T04:47:48.923Z,19.870001
2022-11-22T04:48:54.163Z,19.870001
2022-11-22T04:50:03.714Z,19.870001
2022-11-22T04:51:12.277Z,19.870001
2022-11-22T04:52:21.902Z,19.870001
2022-11-22T04:53:29.439Z,19.870001
2022-11-22T04:54:38.015Z,19.870001
2022-11-22T04:55:47.576Z,19.870001
2022-11-22T04:56:55.167Z,19.870001
2022-11-22T04:58:04.773Z,19.870001
2022-11-22T04:59:13.333Z,19.870001
2022-11-22T05:00:20.896Z,19.870001
2022-11-22T05:01:30.537Z,19.870001
2022-11-22T05:02:39.062Z,19.870001
2022-11-22T05:03:47.651Z,19.860001
2022-11-22T05:04:57.229Z,19.860001
2022-11-22T05:06:04.805Z,19.860001
2022-11-22T05:07:14.445Z,19.860001
2022-11-22T05:08:22.953Z,19.860001
2022-11-22T05:09:30.889Z,19.860001
2022-11-22T05:10:40.070Z,19.860001
2022-11-22T05:11:49.621Z,19.860001
2022-11-22T05:12:59.194Z,19.860001
2022-11-22T05:14:08.755Z,19.860001
2022-11-22T05:15:16.333Z,19.860001
2022-11-22T05:16:25.894Z,19.860001
2022-11-22T05:17:34.460Z,19.860001
2022-11-22T05:18:44.029Z,19.860001
2022-11-22T05:19:53.608Z,19.860001
2022-11-22T05:21:02.137Z,19.860001
2022-11-22T05:22:10.676Z,19.860001
2022-11-22T05:23:20.261Z,19.860001
2022-11-22T05:24:27.890Z,19.860001
2022-11-22T05:25:37.446Z,19.860001
2022-11-22T05:26:46.017Z,19.860001
2022-11-22T05:27:53.615Z,19.860001
2022-11-22T05:29:03.161Z,19.860001
2022-11-22T05:30:10.703Z,19.860001
2022-11-22T05:31:20.279Z,19.860001
2022-11-22T05:32:29.888Z,19.860001
2022-11-22T05:33:37.437Z,19.860001
2022-11-22T05:34:47.034Z,19.860001
2022-11-22T05:35:55.623Z,19.860001
2022-11-22T05:37:03.152Z,19.860001
2022-11-22T05:38:12.733Z,19.860001
2022-11-22T05:39:20.281Z,19.860001
2022-11-22T05:40:29.884Z,19.860001
2022-11-22T05:41:39.461Z,19.860001
2022-11-22T05:42:48.048Z,19.860001
2022-11-22T05:43:55.660Z,19.860001
2022-11-22T05:45:05.248Z,19.85
2022-11-22T05:46:12.805Z,19.85
2022-11-22T05:47:22.460Z,19.85
2022-11-22T05:48:32.100Z,19.85
2022-11-22T05:49:39.673Z,19.85
2022-11-22T05:50:49.251Z,19.85
2022-11-22T05:51:57.886Z,19.85
2022-11-22T05:53:06.459Z,19.85
2022-11-22T05:54:16.107Z,19.85
2022-11-22T05:55:23.698Z,19.85
2022-11-22T05:56:32.253Z,19.85
2022-11-22T05:57:41.876Z,19.85
2022-11-22T05:58:50.549Z,19.85
2022-11-22T06:00:00.152Z,19.85
2022-11-22T06:01:08.713Z,19.84
2022-11-22T06:02:17.396Z,19.84
2022-11-22T06:03:26.916Z,19.84
2022-11-22T06:04:36.487Z,19.84
2022-11-22T06:05:45.070Z,19.84
2022-11-22T06:06:54.654Z,19.84
2022-11-22T06:08:04.377Z,19.84
2022-11-22T06:09:13.885Z,19.84
2022-11-22T06:10:22.452Z,19.84
2022-11-22T06:11:30.036Z,19.84
2022-11-22T06:12:39.657Z,19.84
2022-11-22T06:13:47.238Z,19.84
2022-11-22T06:14:56.009Z,19.83
2022-11-22T06:16:05.590Z,19.83
2022-11-22T06:17:14.157Z,19.83
2022-11-22T06:18:23.789Z,19.83
2022-11-22T06:19:33.366Z,19.83
2022-11-22T06:20:41.177Z,19.83
2022-11-22T06:21:49.788Z,19.82
2022-11-22T06:22:58.374Z,19.82
2022-11-22T06:24:06.979Z,19.82
2022-11-22T06:25:16.556Z,19.82
2022-11-22T06:26:24.128Z,19.82
2022-11-22T06:27:33.766Z,19.809999
2022-11-22T06:28:42.359Z,19.809999
2022-11-22T06:29:50.973Z,19.809999
2022-11-22T06:31:00.566Z,19.809999
2022-11-22T06:32:09.174Z,19.809999
2022-11-22T06:33:17.714Z,19.809999
2022-11-22T06:34:27.385Z,19.809999
2022-11-22T06:35:35.995Z,19.809999
2022-11-22T06:36:45.591Z,19.799999
2022-11-22T06:37:59.244Z,19.799999
2022-11-22T06:39:03.993Z,19.799999
2022-11-22T06:40:13.389Z,19.799999
2022-11-22T06:41:21.943Z,19.799999
2022-11-22T06:42:30.550Z,19.799999
2022-11-22T06:43:43.756Z,19.799999
2022-11-22T06:44:50.667Z,19.799999
2022-11-22T06:46:00.288Z,19.799999
2022-11-22T06:47:08.923Z,19.799999
2022-11-22T06:48:16.483Z,19.799999
2022-11-22T06:49:26.130Z,19.799999
2022-11-22T06:50:34.710Z,19.799999
2022-11-22T06:51:44.319Z,19.799999
2022-11-22T06:52:53.899Z,19.799999
2022-11-22T06:54:01.472Z,19.799999
2022-11-22T06:55:27.447Z,19.799999
2022-11-22T06:56:21.669Z,19.799999
2022-11-22T06:57:29.265Z,19.799999
2022-11-22T06:58:38.866Z,19.799999
2022-11-22T06:59:47.599Z,19.799999
2022-11-22T07:00:56.208Z,19.799999
2022-11-22T07:02:06.729Z,19.799999
2022-11-22T07:03:14.337Z,19.799999
2022-11-22T07:04:23.898Z,19.799999
2022-11-22T07:05:32.504Z,19.799999
2022-11-22T07:06:39.285Z,19.799999
2022-11-22T07:07:48.840Z,19.799999
2022-11-22T07:08:58.326Z,19.799999
2022-11-22T07:10:06.871Z,19.799999
2022-11-22T07:11:16.660Z,19.799999
2022-11-22T07:12:26.298Z,19.799999
2022-11-22T07:13:35.843Z,19.799999
2022-11-22T07:14:44.404Z,19.799999
2022-11-22T07:15:52.956Z,19.790001
2022-11-22T07:17:02.522Z,19.790001
2022-11-22T07:18:11.114Z,19.799999
2022-11-22T07:19:19.698Z,19.790001
2022-11-22T07:20:29.308Z,19.790001
2022-11-22T07:21:36.848Z,19.790001
2022-11-22T07:22:46.453Z,19.790001
2022-11-22T07:23:55.109Z,19.790001
2022-11-22T07:25:02.681Z,19.790001
2022-11-22T07:26:12.287Z,19.790001
2022-11-22T07:27:20.873Z,19.790001
2022-11-22T07:28:29.488Z,19.790001
2022-11-22T07:29:39.067Z,19.790001
2022-11-22T07:30:46.653Z,19.790001
2022-11-22T07:31:56.260Z,19.790001
2022-11-22T07:33:04.838Z,19.790001
2022-11-22T07:34:12.449Z,19.790001
2022-11-22T07:35:22.114Z,19.790001
2022-11-22T07:36:29.772Z,19.790001
2022-11-22T07:37:39.260Z,19.790001
2022-11-22T07:38:48.856Z,19.790001
2022-11-22T07:39:57.412Z,19.790001
2022-11-22T07:41:05.982Z,19.790001
2022-11-22T07:42:15.560Z,19.790001
2022-11-22T07:43:25.112Z,19.790001
2022-11-22T07:44:33.713Z,19.790001
2022-11-22T07:45:43.281Z,19.790001
2022-11-22T07:46:50.865Z,19.790001
2022-11-22T07:48:00.445Z,19.790001
2022-11-22T07:49:08.011Z,19.790001
2022-11-22T07:50:15.605Z,19.790001
2022-11-22T07:51:25.153Z,19.790001
2022-11-22T07:52:32.701Z,19.790001
2022-11-22T07:53:41.298Z,19.790001
2022-11-22T07:54:50.926Z,19.790001
2022-11-22T07:55:58.485Z,19.790001
2022-11-22T07:57:08.068Z,19.790001
2022-11-22T07:58:16.659Z,19.790001
2022-11-22T07:59:26.228Z,19.790001
2022-11-22T08:00:35.948Z,19.790001
2022-11-22T08:01:44.473Z,19.790001
2022-11-22T08:02:52.981Z,19.790001
2022-11-22T08:04:02.583Z,19.790001
2022-11-22T08:05:10.185Z,19.790001
2022-11-22T08:06:19.766Z,19.780001
2022-11-22T08:07:28.392Z,19.780001
2022-11-22T08:08:35.911Z,19.780001
2022-11-22T08:09:45.491Z,19.780001
2022-11-22T08:10:53.093Z,19.780001
2022-11-22T08:12:01.659Z,19.780001
2022-11-22T08:13:11.285Z,19.780001
2022-11-22T08:14:19.915Z,19.780001
2022-11-22T08:15:29.522Z,19.780001
2022-11-22T08:16:39.214Z,19.780001
2022-11-22T08:17:47.699Z,19.780001
2022-11-22T08:18:57.292Z,19.780001
2022-11-22T08:20:05.861Z,19.780001
2022-11-22T08:21:15.435Z,19.780001
2022-11-22T08:22:25.004Z,19.780001
2022-11-22T08:23:32.603Z,19.780001
2022-11-22T08:24:42.170Z,19.780001
2022-11-22T08:25:51.727Z,19.780001
2022-11-22T08:27:00.431Z,19.780001
2022-11-22T08:28:10.155Z,19.780001
2022-11-22T08:29:17.787Z,19.780001
2022-11-22T08:30:26.572Z,19.780001
2022-11-22T08:31:36.415Z,19.780001
2022-11-22T08:32:45.104Z,19.780001
2022-11-22T08:33:55.626Z,19.780001
2022-11-22T08:35:05.192Z,19.780001
2022-11-22T08:36:12.818Z,19.780001
2022-11-22T08:37:21.409Z,19.780001
2022-11-22T08:38:29.306Z,19.780001
2022-11-22T08:39:37.840Z,19.780001
2022-11-22T08:40:47.403Z,19.780001
2022-11-22T08:41:55.974Z,19.780001
2022-11-22T08:43:05.569Z,19.780001
2022-11-22T08:44:14.143Z,19.780001
2022-11-22T08:45:22.754Z,19.77
2022-11-22T08:46:32.609Z,19.780001
2022-11-22T08:47:41.208Z,19.77
2022-11-22T08:48:49.952Z,19.780001
2022-11-22T08:49:59.653Z,19.780001
2022-11-22T08:51:08.611Z,19.77
2022-11-22T08:52:18.266Z,19.77
2022-11-22T08:53:27.904Z,19.77
2022-11-22T08:54:37.873Z,19.77
2022-11-22T08:55:45.198Z,19.77
2022-11-22T08:56:53.768Z,19.77
2022-11-22T08:58:02.385Z,19.77
2022-11-22T08:59:12.087Z,19.77
2022-11-22T09:00:20.603Z,19.77
2022-11-22T09:01:30.245Z,19.77
2022-11-22T09:02:38.891Z,19.77
2022-11-22T09:03:48.488Z,19.77
2022-11-22T09:04:58.291Z,19.780001
2022-11-22T09:08:28.891Z,19.77
2022-11-22T09:09:38.569Z,19.77
2022-11-22T09:10:47.950Z,19.77
2022-11-22T09:11:56.640Z,19.77
2022-11-22T09:13:04.277Z,19.77
2022-11-22T09:14:13.873Z,19.77
2022-11-22T09:15:21.425Z,19.77
2022-11-22T09:16:29.976Z,19.77
2022-11-22T09:17:38.572Z,19.77
2022-11-22T09:18:47.343Z,19.77
2022-11-22T09:19:56.904Z,19.77
2022-11-22T09:21:05.729Z,19.77
2022-11-22T09:22:13.344Z,19.77
2022-11-22T09:23:24.085Z,19.77
2022-11-22T09:24:31.754Z,19.77
2022-11-22T09:25:40.296Z,19.77
2022-11-22T09:26:49.855Z,19.77
2022-11-22T09:27:57.419Z,19.77
2022-11-22T09:29:06.984Z,19.77
2022-11-22T09:30:16.711Z,19.77
2022-11-22T09:31:24.958Z,19.77
2022-11-22T09:32:36.627Z,19.77
2022-11-22T09:33:44.436Z,19.77
2022-11-22T09:34:53.054Z,19.77
2022-11-22T09:36:02.753Z,19.77
2022-11-22T09:37:13.177Z,19.77
2022-11-22T09:38:22.488Z,19.77
2022-11-22T09:39:32.676Z,19.77
2022-11-22T09:40:41.251Z,19.77
2022-11-22T09:41:50.989Z,19.77
2022-11-22T09:43:00.405Z,19.77
2022-11-22T09:44:08.197Z,19.77
2022-11-22T09:45:17.148Z,19.77
2022-11-22T09:46:25.701Z,19.77
2022-11-22T09:47:34.453Z,19.77
2022-11-22T09:48:44.108Z,19.76
2022-11-22T09:49:51.718Z,19.76
2022-11-22T09:51:00.362Z,19.76
2022-11-22T09:52:09.930Z,19.76
2022-11-22T09:53:19.891Z,19.76
2022-11-22T09:54:29.334Z,19.76
2022-11-22T09:55:38.119Z,19.76
2022-11-22T09:56:45.579Z,19.76
2022-11-22T09:57:55.140Z,19.76
2022-11-22T09:59:03.702Z,19.76
2022-11-22T10:00:13.379Z,19.76
2022-11-22T10:01:23.027Z,19.76
2022-11-22T10:02:35.744Z,19.76
2022-11-22T10:03:41.064Z,19.76
2022-11-22T10:04:49.637Z,19.76
2022-11-22T10:05:57.218Z,19.76
2022-11-22T10:07:07.157Z,19.76
2022-11-22T10:08:15.989Z,19.76
2022-11-22T10:09:24.594Z,19.76
2022-11-22T10:10:34.121Z,19.76
2022-11-22T10:11:42.822Z,19.76
2022-11-22T10:12:52.570Z,19.76
2022-11-22T10:14:01.980Z,19.76
2022-11-22T10:15:11.813Z,19.76
2022-11-22T10:16:21.394Z,19.76
2022-11-22T10:17:29.297Z,19.76
2022-11-22T10:18:38.097Z,19.76
2022-11-22T10:19:47.943Z,19.76
2022-11-22T10:20:55.435Z,19.76
2022-11-22T10:22:05.557Z,19.76
2022-11-22T10:23:15.075Z,19.76
2022-11-22T10:24:24.652Z,19.76
2022-11-22T10:25:34.471Z,19.76
2022-11-22T10:26:43.104Z,19.76
2022-11-22T10:27:53.921Z,19.76
2022-11-22T10:29:01.706Z,19.76
2022-11-22T10:30:10.668Z,19.76
2022-11-22T10:31:20.710Z,19.76
2022-11-22T10:32:29.295Z,19.76
2022-11-22T10:33:44.132Z,19.76
2022-11-22T10:34:49.208Z,19.76
2022-11-22T10:35:59.065Z,19.76
2022-11-22T10:37:08.941Z,19.76
2022-11-22T10:38:18.542Z,19.76
2022-11-22T10:39:33.011Z,19.76
2022-11-22T10:40:37.779Z,19.76
2022-11-22T10:41:47.359Z,19.76
2022-11-22T10:42:56.057Z,19.76
2022-11-22T10:44:05.610Z,19.76
2022-11-22T10:45:15.518Z,19.76
2022-11-22T10:46:25.702Z,19.76
2022-11-22T10:47:35.267Z,19.76
2022-11-22T10:48:42.835Z,19.76
2022-11-22T10:49:52.621Z,19.75
2022-11-22T10:51:01.709Z,19.75
2022-11-22T10:52:10.282Z,19.75
2022-11-22T10:53:20.056Z,19.75
2022-11-22T10:54:29.625Z,19.75
2022-11-22T10:55:39.194Z,19.75
2022-11-22T10:56:49.046Z,19.75
2022-11-22T10:57:57.546Z,19.75
2022-11-22T10:59:07.737Z,19.75
2022-11-22T11:00:16.446Z,19.75
2022-11-22T11:01:26.044Z,19.75
2022-11-22T11:02:35.526Z,19.75
2022-11-22T11:03:44.109Z,19.75
2022-11-22T11:04:53.700Z,19.75
2022-11-22T11:07:14.722Z,19.75
2022-11-22T11:08:42.745Z,19.75
2022-11-22T11:10:09.548Z,19.75
2022-11-22T11:10:46.675Z,19.75
2022-11-22T11:11:56.302Z,19.75
2022-11-22T11:13:04.749Z,19.75
2022-11-22T11:14:14.363Z,19.75
2022-11-22T11:15:23.936Z,19.75
2022-11-22T11:16:32.599Z,19.75
2022-11-22T11:17:42.512Z,19.75
2022-11-22T11:18:51.111Z,19.75
2022-11-22T11:19:59.662Z,19.75
2022-11-22T11:21:09.265Z,19.75
2022-11-22T11:22:23.362Z,19.75
2022-11-22T11:23:28.456Z,19.75
2022-11-22T11:24:38.449Z,19.75
2022-11-22T11:25:49.105Z,19.75
2022-11-22T11:26:58.812Z,19.75
2022-11-22T11:28:07.489Z,19.75
2022-11-22T11:29:14.999Z,19.75
2022-11-22T11:30:25.539Z,19.75
2022-11-22T11:31:33.125Z,19.76
2022-11-22T11:32:41.687Z,19.76
2022-11-22T11:33:51.621Z,19.76
2022-11-22T11:35:00.224Z,19.76
2022-11-22T11:36:09.174Z,19.76
2022-11-22T11:37:18.761Z,19.76
2022-11-22T11:38:26.360Z,19.76
2022-11-22T11:39:39.436Z,19.76
2022-11-22T11:40:46.176Z,19.75
2022-11-22T11:41:55.792Z,19.75
2022-11-22T11:43:05.578Z,19.75
2022-11-22T11:44:15.313Z,19.75
2022-11-22T11:45:23.876Z,19.74
2022-11-22T11:46:33.483Z,19.74
2022-11-22T11:47:42.327Z,19.74
2022-11-22T11:48:50.936Z,19.73
2022-11-22T11:50:00.535Z,19.73
2022-11-22T11:51:09.662Z,19.73
2022-11-22T11:52:19.282Z,19.719999
2022-11-22T11:53:27.892Z,19.719999
2022-11-22T11:54:36.477Z,19.719999
2022-11-22T11:55:46.051Z,19.709999
2022-11-22T11:56:53.676Z,19.709999
2022-11-22T11:58:03.342Z,19.709999
2022-11-22T11:59:13.952Z,19.700001
2022-11-22T12:00:21.634Z,19.700001
2022-11-22T12:01:34.460Z,19.690001
2022-11-22T12:02:40.771Z,19.690001
2022-11-22T12:03:49.273Z,19.68
2022-11-22T12:04:58.849Z,19.68
2022-11-22T12:06:06.438Z,19.68
2022-11-22T12:07:15.055Z,19.67
2022-11-22T12:08:24.636Z,19.67
2022-11-22T12:09:34.209Z,19.66
2022-11-22T12:10:43.813Z,19.65
2022-11-22T12:11:53.406Z,19.65
2022-11-22T12:13:04.555Z,19.65
2022-11-22T12:14:19.838Z,19.639999
2022-11-22T12:15:21.154Z,19.639999
2022-11-22T12:16:29.850Z,19.629999
2022-11-22T12:17:39.330Z,19.629999
2022-11-22T12:18:46.922Z,19.620001
2022-11-22T12:19:56.535Z,19.610001
2022-11-22T12:21:05.107Z,19.610001
2022-11-22T12:22:24.203Z,19.610001
2022-11-22T12:23:23.215Z,19.6
2022-11-22T12:25:03.045Z,19.6
2022-11-22T12:25:41.327Z,19.59
2022-11-22T12:26:50.914Z,19.59
2022-11-22T12:27:58.493Z,19.58
2022-11-22T12:29:08.084Z,19.58
2022-11-22T12:30:17.680Z,19.57
2022-11-22T12:31:25.286Z,19.57
2022-11-22T12:32:35.027Z,19.559999
2022-11-22T12:33:43.469Z,19.559999
2022-11-22T12:34:51.057Z,19.549999
2022-11-22T12:35:59.625Z,19.549999
2022-11-22T12:37:08.188Z,19.540001
2022-11-22T12:38:17.771Z,19.540001
2022-11-22T12:39:27.367Z,19.530001
2022-11-22T12:40:34.947Z,19.530001
2022-11-22T12:41:44.524Z,19.530001
2022-11-22T12:42:52.081Z,19.52
2022-11-22T12:44:01.677Z,19.52
2022-11-22T12:45:11.255Z,19.51
2022-11-22T12:46:19.836Z,19.51
2022-11-22T12:47:29.443Z,19.5
2022-11-22T12:48:38.149Z,19.5
2022-11-22T12:49:48.572Z,19.49
2022-11-22T12:50:58.218Z,19.49
2022-11-22T12:52:06.774Z,19.48
2022-11-22T12:53:15.341Z,19.48
2022-11-22T12:54:24.929Z,19.48
2022-11-22T12:55:32.524Z,19.469999
2022-11-22T12:56:42.123Z,19.469999
2022-11-22T12:57:50.760Z,19.459999
2022-11-22T12:58:58.352Z,19.459999
2022-11-22T13:00:07.951Z,19.459999
2022-11-22T13:01:15.601Z,19.450001
2022-11-22T13:02:25.085Z,19.450001
2022-11-22T13:03:34.659Z,19.450001
2022-11-22T13:04:42.404Z,19.440001
2022-11-22T13:05:51.864Z,19.440001
2022-11-22T13:07:01.449Z,19.43
2022-11-22T13:08:09.052Z,19.43
2022-11-22T13:09:18.657Z,19.43
2022-11-22T13:10:26.226Z,19.42
2022-11-22T13:11:35.832Z,19.42
2022-11-22T13:12:45.402Z,19.41
2022-11-22T13:13:54.011Z,19.41
2022-11-22T13:15:03.582Z,19.4
2022-11-22T13:16:12.150Z,19.4
2022-11-22T13:17:19.763Z,19.389999
2022-11-22T13:18:29.372Z,19.389999
2022-11-22T13:19:37.992Z,19.389999
2022-11-22T13:20:47.682Z,19.379999
2022-11-22T13:21:57.139Z,19.379999
2022-11-22T13:23:04.715Z,19.370001
2022-11-22T13:24:14.433Z,19.370001
2022-11-22T13:25:23.052Z,19.360001
2022-11-22T13:26:31.622Z,19.360001
2022-11-22T13:27:41.206Z,19.360001
2022-11-22T13:28:49.887Z,19.35
2022-11-22T13:29:58.477Z,19.35
2022-11-22T13:31:08.085Z,19.35
2022-11-22T13:32:17.689Z,19.34
2022-11-22T13:33:26.255Z,19.34
2022-11-22T13:34:36.050Z,19.33
2022-11-22T13:35:45.594Z,19.33
2022-11-22T13:36:57.853Z,19.32
2022-11-22T13:38:03.796Z,19.32
2022-11-22T13:39:11.390Z,19.32
2022-11-22T13:40:20.940Z,19.309999
2022-11-22T13:41:29.495Z,19.309999
2022-11-22T13:42:37.076Z,19.299999
2022-11-22T13:43:46.683Z,19.299999
2022-11-22T13:44:55.270Z,19.290001
2022-11-22T13:46:03.825Z,19.290001
2022-11-22T13:47:13.412Z,19.290001
2022-11-22T13:48:21.958Z,19.280001
2022-11-22T13:49:36.783Z,19.280001
2022-11-22T13:50:42.079Z,19.27
2022-11-22T13:51:49.641Z,19.27
2022-11-22T13:53:00.321Z,19.26
2022-11-22T13:54:08.815Z,19.26
2022-11-22T13:55:18.362Z,19.25
2022-11-22T13:56:27.938Z,19.25
2022-11-22T13:57:35.500Z,19.25
2022-11-22T13:58:49.156Z,19.24